• Join FlightAware (Why Join?)
  • Login
  • US Flag 
01:55PM EDT


 

Airport Tracker/Info


-or-


 

Live Flight TrackerFlight Track Log ✈ SKW4728 ✈ 23-Apr-2013 ✈ KSLC - KMFR

Flight Track Log - Related Links

Times and Time Zones

All times are in EDT time to prevent confusion due to time zone crossing. See the SKW4728 flight status page for this flight to view local times or setup timezone preferences in your user account.

Time Position Orientation Groundspeed Altitude Reporting Facility
EDT Latitude Longitude Course Direction KTS MPH feet Rate Location/Type
01:32PM 40.8086 -112.0014 258° West 169 194 4,900  Level Salt Lake Center
01:32PM 40.8219 -112.0075 341° North 164 189 5,400 1,740 Climbing Salt Lake Center
01:33PM 40.8492 -112.0878 294° West 221 254 7,300 2,160 Climbing Salt Lake Center
01:34PM 40.8775 -112.1719 294° West 245 282 9,900 2,580 Climbing Salt Lake Center
01:35PM 40.8629 -112.4183 288° West  Level FlightAware Approximate
01:35PM 40.8833 -112.2686 275° West 266 306 12,700  Level Salt Lake Center
01:36PM 40.8527 -112.5453 261° West  Level FlightAware Approximate
01:36PM 40.8744 -112.3742 264° West 269 310 15,500  Level Salt Lake Center
01:37PM 40.8460 -112.6738 258° West  Level FlightAware Approximate
01:37PM 40.8678 -112.4728 265° West 270 311 17,600  Level Salt Lake Center
01:38PM 40.8614 -112.5747 265° West 278 320 19,200 1,680 Climbing Salt Lake Center
01:39PM 40.8517 -112.6919 264° West 297 342 21,100 1,740 Climbing Salt Lake Center
01:40PM 40.8428 -112.8019 264° West 304 350 22,800 1,500 Climbing Salt Lake Center
01:41PM 40.8403 -112.9203 268° West 302 348 24,200 1,320 Climbing Salt Lake Center
01:42PM 40.8411 -113.0306 271° West 302 348 25,600 1,200 Climbing Salt Lake Center
01:43PM 40.8417 -113.1411 270° West 301 346 26,700 1,080 Climbing Salt Lake Center
01:44PM 40.8414 -113.2628 270° West 309 356 27,900 900 Climbing Salt Lake Center
01:46PM 40.8333 -113.4221 270° West  Level FlightAware Approximate
01:46PM 40.8408 -113.4828 270° West 313 360 29,600  Level Salt Lake Center
01:47PM 40.8406 -113.6136 270° West 317 365 30,300 540 Climbing Salt Lake Center
01:48PM 40.8414 -113.7306 271° West 327 376 30,800 600 Climbing Salt Lake Center
01:49PM 40.8397 -113.8642 269° West 327 376 31,600 540 Climbing Salt Lake Center
01:50PM 40.8411 -113.9792 271° West 327 376 32,000 180 Climbing Salt Lake Center
01:51PM 40.8397 -114.1133 269° West 327 376 32,000  Level Salt Lake Center
01:53PM 40.8394 -114.2269 270° West 325 374 32,000  Level Salt Lake Center
01:54PM 40.8378 -114.3386 269° West 322 371 32,000  Level Salt Lake Center
01:55PM 40.8369 -114.4697 270° West 320 368 32,000  Level Salt Lake Center
01:56PM 40.8358 -114.5822 269° West 319 367 32,000  Level Salt Lake Center
01:57PM 40.8342 -114.7142 269° West 321 369 32,000  Level Salt Lake Center
01:58PM 40.8264 -114.8292 265° West 325 374 32,000  Level Salt Lake Center
01:59PM 40.8094 -114.9647 261° West 332 382 32,000  Level Salt Lake Center
02:00PM 40.7961 -115.0825 262° West 336 387 32,000  Level Salt Lake Center
02:01PM 40.7792 -115.2156 260° West 333 383 32,000  Level Salt Lake Center
02:02PM 40.7650 -115.3303 261° West 331 381 32,000  Level Salt Lake Center
02:03PM 40.7517 -115.4450 261° West 330 380 32,000  Level Salt Lake Center
02:04PM 40.7381 -115.5769 262° West 328 377 32,000  Level Salt Lake Center
02:05PM 40.7253 -115.6900 262° West 327 376 32,000  Level Salt Lake Center
02:06PM 40.7081 -115.8250 260° West 330 380 32,000  Level Salt Lake Center
02:07PM 40.6942 -115.9386 261° West 330 380 32,000  Level Salt Lake Center
02:08PM 40.6772 -116.0750 261° West 334 384 32,000  Level Salt Lake Center
02:09PM 40.6625 -116.1939 261° West 339 390 32,000  Level Salt Lake Center
02:10PM 40.6475 -116.3125 261° West 343 395 32,000  Level Salt Lake Center
02:11PM 40.6303 -116.4486 261° West 339 390 32,000  Level Salt Lake Center
02:12PM 40.6156 -116.5650 261° West 337 388 32,000  Level Salt Lake Center
02:13PM 40.5986 -116.6986 261° West 334 384 32,000  Level Salt Lake Center
02:14PM 40.5836 -116.8122 260° West 332 382 32,000  Level Salt Lake Center
02:15PM 40.5772 -116.9414 266° West 322 371 32,000  Level Salt Lake Center
02:16PM 40.6036 -117.0381 290° West 297 342 32,000  Level Salt Lake Center
02:17PM 40.6372 -117.1506 292° West 296 341 32,000  Level Salt Lake Center
02:18PM 40.6650 -117.2467 291° West 295 339 32,000  Level Salt Lake Center
02:19PM 40.6992 -117.3619 291° West 300 345 32,000  Level Salt Lake Center
02:20PM 40.7275 -117.4589 291° West 299 344 32,000  Level Salt Lake Center
02:21PM 40.7606 -117.5739 291° West 299 344 32,000  Level Salt Lake Center
02:22PM 40.7894 -117.6722 291° West 300 345 32,000  Level Salt Lake Center
02:23PM 40.8228 -117.7889 291° West 303 349 32,000  Level Salt Lake Center
02:24PM 40.8522 -117.8883 291° West 304 350 32,000  Level Salt Lake Center
02:25PM 40.8803 -117.9894 290° West 305 351 32,000  Level Salt Lake Center
02:27PM 40.9139 -118.1064 291° West 305 351 32,000  Level Salt Lake Center
02:28PM 40.9431 -118.2075 291° West 306 352 32,000  Level Salt Lake Center
02:29PM 40.9761 -118.3239 291° West 304 350 32,000  Level Salt Lake Center
02:30PM 41.0031 -118.4244 290° West 303 349 32,000  Level Salt Lake Center
02:31PM 41.0367 -118.5403 291° West 302 348 32,000  Level Salt Lake Center
02:32PM 41.0636 -118.6394 290° West 300 345 32,000  Level Salt Lake Center
02:33PM 41.0908 -118.7389 290° West 300 345 32,000  Level Salt Lake Center
02:34PM 41.1233 -118.8550 290° West 300 345 32,000  Level Salt Lake Center
02:35PM 41.1511 -118.9550 290° West 301 346 32,000  Level Salt Lake Center
02:36PM 41.1831 -119.0750 290° West 306 352 32,000  Level Salt Lake Center
02:37PM 41.2108 -119.1781 290° West 309 356 32,000  Level Salt Lake Center
02:38PM 41.2453 -119.3000 291° West 314 361 32,000  Level Salt Lake Center
02:39PM 41.2736 -119.4072 289° West 319 367 32,000  Level Salt Lake Center
02:40PM 41.3033 -119.5139 290° West 322 371 32,000  Level Salt Lake Center
02:41PM 41.3381 -119.6486 289° West 325 374 32,000  Level Seattle Center
02:42PM 41.3689 -119.7622 290° West 328 377 32,000  Level Seattle Center
02:43PM 41.4000 -119.8800 289° West 328 377 32,000  Level Seattle Center
02:44PM 41.4294 -119.9917 289° West 328 377 32,000  Level Seattle Center
02:45PM 41.4700 -120.1014 296° West 323 372 32,000  Level Seattle Center
02:46PM 41.5114 -120.2022 299° West 321 369 32,000  Level Seattle Center
02:47PM 41.5494 -120.3072 296° West 317 365 32,000  Level Seattle Center
02:48PM 41.5892 -120.4117 297° West 316 364 32,000  Level Seattle Center
02:49PM 41.6281 -120.5161 297° West 314 361 32,000  Level Seattle Center
02:50PM 41.6719 -120.6422 295° West 313 360 32,000  Level Seattle Center
02:51PM 41.7103 -120.7456 296° West 312 359 32,000  Level Seattle Center
02:52PM 41.7500 -120.8486 297° West 311 358 32,000  Level Seattle Center
02:53PM 41.7864 -120.9519 295° West 307 353 32,000  Level Seattle Center
02:54PM 41.8250 -121.0544 297° West 309 356 32,000  Level Seattle Center
02:55PM 41.8628 -121.1581 296° West 310 357 32,000 -840 Level Seattle Center
02:56PM 41.9003 -121.2642 295° West 316 364 30,300 -1,860 Descending Seattle Center
02:57PM 41.9397 -121.3725 296° West 322 371 28,300 -1,980 Descending Seattle Center
02:58PM 41.9767 -121.4797 295° West 318 366 26,300 -1,980 Descending Seattle Center
02:59PM 42.0158 -121.5858 296° West 319 367 24,300 -1,980 Descending Seattle Center
03:00PM 42.0531 -121.6897 296° West 312 359 22,300 -2,220 Descending Seattle Center
03:01PM 42.0961 -121.8097 296° West 301 346 19,900 -2,160 Descending Seattle Center
03:02PM 42.1294 -121.9075 295° West 296 341 18,000 -1,920 Descending Seattle Center
03:03PM 42.1628 -122.0017 296° West 288 331 16,100 -2,160 Descending Seattle Center
03:04PM 42.1964 -122.0958 296° West 286 329 13,700 -2,040 Descending Seattle Center
03:05PM 42.2292 -122.1886 296° West 280 322 12,000 -840 Descending Seattle Center
03:06PM 42.2581 -122.2706 295° West 243 280 12,000 -360 Level Seattle Center
03:07PM 42.2856 -122.3500 295° West 234 269 11,300 -1,080 Descending Seattle Center
03:08PM 42.2928 -122.4389 276° West 251 289 9,900 -1,620 Descending Seattle Center
03:09PM 42.2919 -122.5478 269° West 246 283 8,100 -1,380 Descending Seattle Center
03:10PM 42.2903 -122.6381 269° West 243 280 7,200 -1,140 Descending Seattle Center
03:12PM 42.2892 -122.7156 269° West 211 243 5,800 -1,440 Descending Seattle Center
03:13PM 42.2881 -122.7900 269° West 197 227 4,300 -1,500 Descending Seattle Center